sensor_id;sensor_type;location;lat;lon;timestamp;P1;durP1;ratioP1;P2;durP2;ratioP2
76259;SDS011;65076;52.362;6.588;2023-03-23T00:00:09;5.05;;;2.70;;
76259;SDS011;65076;52.362;6.588;2023-03-23T00:02:38;4.75;;;2.13;;
76259;SDS011;65076;52.362;6.588;2023-03-23T00:05:05;8.65;;;2.03;;
76259;SDS011;65076;52.362;6.588;2023-03-23T00:07:35;5.32;;;2.63;;
76259;SDS011;65076;52.362;6.588;2023-03-23T00:10:02;3.05;;;1.98;;
76259;SDS011;65076;52.362;6.588;2023-03-23T00:12:30;5.00;;;2.65;;
76259;SDS011;65076;52.362;6.588;2023-03-23T00:14:59;3.15;;;2.10;;
76259;SDS011;65076;52.362;6.588;2023-03-23T00:17:27;4.68;;;2.25;;
76259;SDS011;65076;52.362;6.588;2023-03-23T00:19:54;5.47;;;3.00;;
76259;SDS011;65076;52.362;6.588;2023-03-23T00:22:21;2.65;;;1.90;;
76259;SDS011;65076;52.362;6.588;2023-03-23T00:24:51;6.25;;;2.33;;
76259;SDS011;65076;52.362;6.588;2023-03-23T00:27:18;5.28;;;2.33;;
76259;SDS011;65076;52.362;6.588;2023-03-23T00:29:47;6.13;;;2.15;;
76259;SDS011;65076;52.362;6.588;2023-03-23T00:32:18;5.63;;;2.15;;
76259;SDS011;65076;52.362;6.588;2023-03-23T00:34:46;4.78;;;2.78;;
76259;SDS011;65076;52.362;6.588;2023-03-23T00:37:14;6.22;;;2.85;;
76259;SDS011;65076;52.362;6.588;2023-03-23T00:39:42;4.15;;;1.98;;
76259;SDS011;65076;52.362;6.588;2023-03-23T00:42:13;6.13;;;3.20;;
76259;SDS011;65076;52.362;6.588;2023-03-23T00:44:41;4.40;;;2.20;;
76259;SDS011;65076;52.362;6.588;2023-03-23T00:47:10;6.38;;;3.25;;
76259;SDS011;65076;52.362;6.588;2023-03-23T00:49:38;5.28;;;2.58;;
76259;SDS011;65076;52.362;6.588;2023-03-23T00:52:06;5.80;;;2.67;;
76259;SDS011;65076;52.362;6.588;2023-03-23T00:54:33;3.22;;;2.03;;
76259;SDS011;65076;52.362;6.588;2023-03-23T00:57:02;2.90;;;2.22;;
76259;SDS011;65076;52.362;6.588;2023-03-23T00:59:31;4.53;;;2.97;;
76259;SDS011;65076;52.362;6.588;2023-03-23T01:01:59;7.20;;;2.70;;
76259;SDS011;65076;52.362;6.588;2023-03-23T01:04:25;4.80;;;2.22;;
76259;SDS011;65076;52.362;6.588;2023-03-23T01:06:56;4.75;;;2.10;;
76259;SDS011;65076;52.362;6.588;2023-03-23T01:09:25;3.88;;;2.25;;
76259;SDS011;65076;52.362;6.588;2023-03-23T01:11:52;4.32;;;2.78;;
76259;SDS011;65076;52.362;6.588;2023-03-23T01:14:20;4.13;;;2.63;;
76259;SDS011;65076;52.362;6.588;2023-03-23T01:16:49;6.38;;;2.90;;
76259;SDS011;65076;52.362;6.588;2023-03-23T01:19:16;7.43;;;2.22;;
76259;SDS011;65076;52.362;6.588;2023-03-23T01:21:42;5.07;;;2.65;;
76259;SDS011;65076;52.362;6.588;2023-03-23T01:24:09;4.47;;;2.05;;
76259;SDS011;65076;52.362;6.588;2023-03-23T01:26:36;5.40;;;2.25;;
76259;SDS011;65076;52.362;6.588;2023-03-23T01:29:03;3.58;;;2.40;;
76259;SDS011;65076;52.362;6.588;2023-03-23T01:31:30;5.93;;;2.72;;
76259;SDS011;65076;52.362;6.588;2023-03-23T01:33:58;7.13;;;2.45;;
76259;SDS011;65076;52.362;6.588;2023-03-23T01:36:26;5.35;;;2.85;;
76259;SDS011;65076;52.362;6.588;2023-03-23T01:38:58;5.72;;;3.05;;
76259;SDS011;65076;52.362;6.588;2023-03-23T01:43:58;5.00;;;2.28;;
76259;SDS011;65076;52.362;6.588;2023-03-23T01:46:29;6.97;;;2.55;;
76259;SDS011;65076;52.362;6.588;2023-03-23T01:49:00;7.45;;;2.88;;
76259;SDS011;65076;52.362;6.588;2023-03-23T01:51:34;3.63;;;2.33;;
76259;SDS011;65076;52.362;6.588;2023-03-23T01:54:07;4.63;;;2.85;;
76259;SDS011;65076;52.362;6.588;2023-03-23T01:56:39;5.03;;;2.50;;
76259;SDS011;65076;52.362;6.588;2023-03-23T01:59:20;4.47;;;2.58;;
76259;SDS011;65076;52.362;6.588;2023-03-23T02:01:50;5.35;;;2.78;;
76259;SDS011;65076;52.362;6.588;2023-03-23T02:04:21;4.47;;;2.10;;
76259;SDS011;65076;52.362;6.588;2023-03-23T02:06:51;4.38;;;2.55;;
76259;SDS011;65076;52.362;6.588;2023-03-23T02:11:48;3.53;;;2.15;;
76259;SDS011;65076;52.362;6.588;2023-03-23T02:14:16;4.20;;;1.92;;
76259;SDS011;65076;52.362;6.588;2023-03-23T02:16:44;5.63;;;2.40;;
76259;SDS011;65076;52.362;6.588;2023-03-23T02:19:41;4.68;;;2.40;;
76259;SDS011;65076;52.362;6.588;2023-03-23T02:26:11;7.32;;;2.78;;
76259;SDS011;65076;52.362;6.588;2023-03-23T02:29:02;3.50;;;1.98;;
76259;SDS011;65076;52.362;6.588;2023-03-23T02:31:53;4.43;;;2.65;;
76259;SDS011;65076;52.362;6.588;2023-03-23T02:34:39;4.22;;;2.42;;
76259;SDS011;65076;52.362;6.588;2023-03-23T02:37:09;4.50;;;2.30;;
76259;SDS011;65076;52.362;6.588;2023-03-23T02:39:47;2.78;;;2.08;;
76259;SDS011;65076;52.362;6.588;2023-03-23T02:42:19;3.42;;;2.65;;
76259;SDS011;65076;52.362;6.588;2023-03-23T02:44:50;5.63;;;2.53;;
76259;SDS011;65076;52.362;6.588;2023-03-23T02:49:53;3.92;;;2.05;;
76259;SDS011;65076;52.362;6.588;2023-03-23T02:52:24;3.00;;;2.13;;
76259;SDS011;65076;52.362;6.588;2023-03-23T02:54:56;3.08;;;2.28;;
76259;SDS011;65076;52.362;6.588;2023-03-23T02:57:27;3.92;;;1.85;;
76259;SDS011;65076;52.362;6.588;2023-03-23T02:59:55;3.38;;;2.17;;
76259;SDS011;65076;52.362;6.588;2023-03-23T03:02:22;5.13;;;2.03;;
76259;SDS011;65076;52.362;6.588;2023-03-23T03:04:55;4.32;;;2.33;;
76259;SDS011;65076;52.362;6.588;2023-03-23T03:07:39;5.35;;;2.33;;
76259;SDS011;65076;52.362;6.588;2023-03-23T03:10:22;4.38;;;2.50;;
76259;SDS011;65076;52.362;6.588;2023-03-23T03:12:56;2.97;;;1.80;;
76259;SDS011;65076;52.362;6.588;2023-03-23T03:15:31;6.55;;;2.47;;
76259;SDS011;65076;52.362;6.588;2023-03-23T03:18:05;3.60;;;2.00;;
76259;SDS011;65076;52.362;6.588;2023-03-23T03:20:43;4.60;;;2.38;;
76259;SDS011;65076;52.362;6.588;2023-03-23T03:23:15;3.92;;;2.47;;
76259;SDS011;65076;52.362;6.588;2023-03-23T03:25:45;2.83;;;2.30;;
76259;SDS011;65076;52.362;6.588;2023-03-23T03:28:15;6.30;;;2.90;;
76259;SDS011;65076;52.362;6.588;2023-03-23T03:30:46;5.70;;;2.10;;
76259;SDS011;65076;52.362;6.588;2023-03-23T03:33:20;4.97;;;2.97;;
76259;SDS011;65076;52.362;6.588;2023-03-23T03:35:52;3.50;;;2.25;;
76259;SDS011;65076;52.362;6.588;2023-03-23T03:38:21;5.78;;;2.38;;
76259;SDS011;65076;52.362;6.588;2023-03-23T03:40:49;3.65;;;2.17;;
76259;SDS011;65076;52.362;6.588;2023-03-23T03:43:16;6.55;;;3.00;;
76259;SDS011;65076;52.362;6.588;2023-03-23T03:45:43;4.10;;;2.50;;
76259;SDS011;65076;52.362;6.588;2023-03-23T03:48:10;3.45;;;2.80;;
76259;SDS011;65076;52.362;6.588;2023-03-23T03:50:38;3.67;;;1.92;;
76259;SDS011;65076;52.362;6.588;2023-03-23T03:53:06;3.25;;;2.28;;
76259;SDS011;65076;52.362;6.588;2023-03-23T03:55:33;5.53;;;2.10;;
76259;SDS011;65076;52.362;6.588;2023-03-23T03:58:03;5.10;;;2.47;;
76259;SDS011;65076;52.362;6.588;2023-03-23T04:00:31;3.45;;;1.75;;
76259;SDS011;65076;52.362;6.588;2023-03-23T04:02:58;7.25;;;3.30;;
76259;SDS011;65076;52.362;6.588;2023-03-23T04:05:25;4.05;;;2.15;;
76259;SDS011;65076;52.362;6.588;2023-03-23T04:07:55;4.65;;;2.28;;
76259;SDS011;65076;52.362;6.588;2023-03-23T04:10:28;3.58;;;2.72;;
76259;SDS011;65076;52.362;6.588;2023-03-23T04:12:56;3.63;;;2.95;;
76259;SDS011;65076;52.362;6.588;2023-03-23T04:15:23;2.42;;;1.88;;
76259;SDS011;65076;52.362;6.588;2023-03-23T04:17:51;2.72;;;2.10;;
76259;SDS011;65076;52.362;6.588;2023-03-23T04:20:19;5.57;;;2.30;;
76259;SDS011;65076;52.362;6.588;2023-03-23T04:22:46;3.58;;;2.45;;
76259;SDS011;65076;52.362;6.588;2023-03-23T04:25:17;5.70;;;2.45;;
76259;SDS011;65076;52.362;6.588;2023-03-23T04:27:48;2.28;;;1.90;;
76259;SDS011;65076;52.362;6.588;2023-03-23T04:30:18;4.40;;;2.40;;
76259;SDS011;65076;52.362;6.588;2023-03-23T04:32:47;3.47;;;2.38;;
76259;SDS011;65076;52.362;6.588;2023-03-23T04:35:17;3.40;;;2.03;;
76259;SDS011;65076;52.362;6.588;2023-03-23T04:37:46;4.40;;;1.73;;
76259;SDS011;65076;52.362;6.588;2023-03-23T04:40:15;5.03;;;2.40;;
76259;SDS011;65076;52.362;6.588;2023-03-23T04:42:44;4.78;;;1.80;;
76259;SDS011;65076;52.362;6.588;2023-03-23T04:45:14;3.20;;;2.10;;
76259;SDS011;65076;52.362;6.588;2023-03-23T04:47:46;3.75;;;2.45;;
76259;SDS011;65076;52.362;6.588;2023-03-23T04:50:18;6.20;;;2.75;;
76259;SDS011;65076;52.362;6.588;2023-03-23T04:52:49;3.38;;;2.05;;
76259;SDS011;65076;52.362;6.588;2023-03-23T04:55:16;3.17;;;2.38;;
76259;SDS011;65076;52.362;6.588;2023-03-23T04:57:46;8.25;;;2.50;;
76259;SDS011;65076;52.362;6.588;2023-03-23T05:00:15;5.05;;;2.60;;
76259;SDS011;65076;52.362;6.588;2023-03-23T05:02:43;3.88;;;2.63;;
76259;SDS011;65076;52.362;6.588;2023-03-23T05:05:12;3.28;;;2.00;;
76259;SDS011;65076;52.362;6.588;2023-03-23T05:07:41;4.65;;;2.50;;
76259;SDS011;65076;52.362;6.588;2023-03-23T05:10:09;3.58;;;2.75;;
76259;SDS011;65076;52.362;6.588;2023-03-23T05:12:38;4.57;;;2.08;;
76259;SDS011;65076;52.362;6.588;2023-03-23T05:15:06;4.68;;;2.15;;
76259;SDS011;65076;52.362;6.588;2023-03-23T05:17:36;2.85;;;1.88;;
76259;SDS011;65076;52.362;6.588;2023-03-23T05:20:04;2.63;;;2.17;;
76259;SDS011;65076;52.362;6.588;2023-03-23T05:22:34;2.67;;;1.73;;
76259;SDS011;65076;52.362;6.588;2023-03-23T05:25:04;2.78;;;2.05;;
76259;SDS011;65076;52.362;6.588;2023-03-23T05:27:35;4.85;;;1.60;;
76259;SDS011;65076;52.362;6.588;2023-03-23T05:30:03;2.72;;;1.70;;
76259;SDS011;65076;52.362;6.588;2023-03-23T05:32:31;2.72;;;1.63;;
76259;SDS011;65076;52.362;6.588;2023-03-23T05:35:00;3.13;;;2.15;;
76259;SDS011;65076;52.362;6.588;2023-03-23T05:37:28;5.43;;;2.03;;
76259;SDS011;65076;52.362;6.588;2023-03-23T05:39:57;5.20;;;2.47;;
76259;SDS011;65076;52.362;6.588;2023-03-23T05:42:30;4.05;;;2.22;;
76259;SDS011;65076;52.362;6.588;2023-03-23T05:44:57;3.25;;;2.15;;
76259;SDS011;65076;52.362;6.588;2023-03-23T05:47:25;5.97;;;2.72;;
76259;SDS011;65076;52.362;6.588;2023-03-23T05:49:52;3.30;;;1.42;;
76259;SDS011;65076;52.362;6.588;2023-03-23T05:52:20;3.50;;;1.50;;
76259;SDS011;65076;52.362;6.588;2023-03-23T05:54:49;3.00;;;2.30;;
76259;SDS011;65076;52.362;6.588;2023-03-23T05:57:15;2.78;;;2.10;;
76259;SDS011;65076;52.362;6.588;2023-03-23T05:59:43;3.58;;;1.77;;
76259;SDS011;65076;52.362;6.588;2023-03-23T06:02:11;2.30;;;1.88;;
76259;SDS011;65076;52.362;6.588;2023-03-23T06:04:39;3.58;;;1.90;;
76259;SDS011;65076;52.362;6.588;2023-03-23T06:07:06;3.80;;;1.58;;
76259;SDS011;65076;52.362;6.588;2023-03-23T06:09:39;3.63;;;1.90;;
76259;SDS011;65076;52.362;6.588;2023-03-23T06:12:06;3.17;;;1.98;;
76259;SDS011;65076;52.362;6.588;2023-03-23T06:14:34;5.40;;;1.80;;
76259;SDS011;65076;52.362;6.588;2023-03-23T06:17:01;5.88;;;2.42;;
76259;SDS011;65076;52.362;6.588;2023-03-23T06:19:28;5.30;;;4.20;;
76259;SDS011;65076;52.362;6.588;2023-03-23T06:21:55;6.88;;;5.07;;
76259;SDS011;65076;52.362;6.588;2023-03-23T06:24:22;4.40;;;1.73;;
76259;SDS011;65076;52.362;6.588;2023-03-23T06:26:50;7.00;;;2.03;;
76259;SDS011;65076;52.362;6.588;2023-03-23T06:29:17;4.20;;;1.75;;
76259;SDS011;65076;52.362;6.588;2023-03-23T06:31:44;3.17;;;1.88;;
76259;SDS011;65076;52.362;6.588;2023-03-23T06:34:15;7.13;;;2.00;;
76259;SDS011;65076;52.362;6.588;2023-03-23T06:36:42;2.72;;;1.55;;
76259;SDS011;65076;52.362;6.588;2023-03-23T06:39:09;3.70;;;1.77;;
76259;SDS011;65076;52.362;6.588;2023-03-23T06:41:37;7.10;;;1.98;;
76259;SDS011;65076;52.362;6.588;2023-03-23T06:44:06;4.07;;;1.95;;
76259;SDS011;65076;52.362;6.588;2023-03-23T06:46:33;6.68;;;1.73;;
76259;SDS011;65076;52.362;6.588;2023-03-23T06:49:01;4.75;;;1.58;;
76259;SDS011;65076;52.362;6.588;2023-03-23T06:51:28;4.28;;;3.33;;
76259;SDS011;65076;52.362;6.588;2023-03-23T06:53:55;4.10;;;2.30;;
76259;SDS011;65076;52.362;6.588;2023-03-23T06:56:22;3.83;;;1.00;;
76259;SDS011;65076;52.362;6.588;2023-03-23T06:58:50;3.53;;;1.08;;
76259;SDS011;65076;52.362;6.588;2023-03-23T07:01:19;4.20;;;1.33;;
76259;SDS011;65076;52.362;6.588;2023-03-23T07:03:46;1.10;;;0.40;;
76259;SDS011;65076;52.362;6.588;2023-03-23T07:06:14;3.63;;;0.50;;
76259;SDS011;65076;52.362;6.588;2023-03-23T07:08:41;2.67;;;0.50;;
76259;SDS011;65076;52.362;6.588;2023-03-23T07:11:08;4.60;;;0.73;;
76259;SDS011;65076;52.362;6.588;2023-03-23T07:13:35;2.40;;;0.55;;
76259;SDS011;65076;52.362;6.588;2023-03-23T07:16:04;2.38;;;0.93;;
76259;SDS011;65076;52.362;6.588;2023-03-23T07:18:34;3.10;;;0.80;;
76259;SDS011;65076;52.362;6.588;2023-03-23T07:21:01;4.05;;;1.08;;
76259;SDS011;65076;52.362;6.588;2023-03-23T07:23:28;4.43;;;1.17;;
76259;SDS011;65076;52.362;6.588;2023-03-23T07:25:56;6.45;;;1.00;;
76259;SDS011;65076;52.362;6.588;2023-03-23T07:28:23;6.28;;;1.27;;
76259;SDS011;65076;52.362;6.588;2023-03-23T07:30:50;2.42;;;1.00;;
76259;SDS011;65076;52.362;6.588;2023-03-23T07:33:17;5.57;;;1.17;;
76259;SDS011;65076;52.362;6.588;2023-03-23T07:35:46;5.32;;;1.42;;
76259;SDS011;65076;52.362;6.588;2023-03-23T07:38:13;4.68;;;1.63;;
76259;SDS011;65076;52.362;6.588;2023-03-23T07:40:40;2.53;;;0.98;;
76259;SDS011;65076;52.362;6.588;2023-03-23T07:43:07;7.22;;;1.40;;
76259;SDS011;65076;52.362;6.588;2023-03-23T07:45:34;3.38;;;1.00;;
76259;SDS011;65076;52.362;6.588;2023-03-23T07:48:01;5.70;;;1.13;;
76259;SDS011;65076;52.362;6.588;2023-03-23T07:50:28;2.22;;;0.90;;
76259;SDS011;65076;52.362;6.588;2023-03-23T07:52:57;2.22;;;0.60;;
76259;SDS011;65076;52.362;6.588;2023-03-23T07:55:24;2.53;;;1.13;;
76259;SDS011;65076;52.362;6.588;2023-03-23T07:57:52;4.18;;;1.00;;
76259;SDS011;65076;52.362;6.588;2023-03-23T08:00:20;2.03;;;0.55;;
76259;SDS011;65076;52.362;6.588;2023-03-23T08:02:51;1.40;;;1.30;;
76259;SDS011;65076;52.362;6.588;2023-03-23T08:05:21;2.20;;;0.70;;
76259;SDS011;65076;52.362;6.588;2023-03-23T08:07:51;1.90;;;0.90;;
76259;SDS011;65076;52.362;6.588;2023-03-23T08:10:21;4.25;;;0.93;;
76259;SDS011;65076;52.362;6.588;2023-03-23T08:12:50;3.38;;;0.93;;
76259;SDS011;65076;52.362;6.588;2023-03-23T08:15:19;3.53;;;1.50;;
76259;SDS011;65076;52.362;6.588;2023-03-23T08:17:47;5.03;;;1.33;;
76259;SDS011;65076;52.362;6.588;2023-03-23T08:20:15;6.88;;;1.13;;
76259;SDS011;65076;52.362;6.588;2023-03-23T08:22:44;1.85;;;1.17;;
76259;SDS011;65076;52.362;6.588;2023-03-23T08:25:18;5.45;;;1.92;;
76259;SDS011;65076;52.362;6.588;2023-03-23T08:27:47;4.32;;;1.60;;
76259;SDS011;65076;52.362;6.588;2023-03-23T08:30:15;4.47;;;1.80;;
76259;SDS011;65076;52.362;6.588;2023-03-23T08:32:45;5.47;;;1.50;;
76259;SDS011;65076;52.362;6.588;2023-03-23T08:35:13;5.07;;;1.95;;
76259;SDS011;65076;52.362;6.588;2023-03-23T08:37:41;3.45;;;1.27;;
76259;SDS011;65076;52.362;6.588;2023-03-23T08:40:10;4.55;;;1.77;;
76259;SDS011;65076;52.362;6.588;2023-03-23T08:42:40;7.03;;;2.03;;
76259;SDS011;65076;52.362;6.588;2023-03-23T08:45:12;3.10;;;1.40;;
76259;SDS011;65076;52.362;6.588;2023-03-23T08:47:42;6.53;;;1.42;;
76259;SDS011;65076;52.362;6.588;2023-03-23T08:50:10;4.18;;;1.60;;
76259;SDS011;65076;52.362;6.588;2023-03-23T08:52:41;3.65;;;1.42;;
76259;SDS011;65076;52.362;6.588;2023-03-23T08:55:08;3.38;;;1.20;;
76259;SDS011;65076;52.362;6.588;2023-03-23T08:57:36;3.30;;;1.15;;
76259;SDS011;65076;52.362;6.588;2023-03-23T09:00:04;3.50;;;1.17;;
76259;SDS011;65076;52.362;6.588;2023-03-23T09:02:49;3.25;;;1.08;;
76259;SDS011;65076;52.362;6.588;2023-03-23T09:05:19;4.03;;;1.05;;
76259;SDS011;65076;52.362;6.588;2023-03-23T09:07:53;4.13;;;1.23;;
76259;SDS011;65076;52.362;6.588;2023-03-23T09:10:24;2.95;;;1.38;;
76259;SDS011;65076;52.362;6.588;2023-03-23T09:12:52;4.85;;;1.45;;
76259;SDS011;65076;52.362;6.588;2023-03-23T09:15:21;6.53;;;1.50;;
76259;SDS011;65076;52.362;6.588;2023-03-23T09:17:50;3.80;;;1.73;;
76259;SDS011;65076;52.362;6.588;2023-03-23T09:20:21;3.55;;;1.20;;
76259;SDS011;65076;52.362;6.588;2023-03-23T09:22:51;2.72;;;0.95;;
76259;SDS011;65076;52.362;6.588;2023-03-23T09:25:23;6.15;;;1.65;;
76259;SDS011;65076;52.362;6.588;2023-03-23T09:27:53;3.67;;;1.52;;
76259;SDS011;65076;52.362;6.588;2023-03-23T09:30:22;3.45;;;1.25;;
76259;SDS011;65076;52.362;6.588;2023-03-23T09:32:53;2.63;;;1.00;;
76259;SDS011;65076;52.362;6.588;2023-03-23T09:35:21;4.25;;;1.38;;
76259;SDS011;65076;52.362;6.588;2023-03-23T09:37:49;2.75;;;1.38;;
76259;SDS011;65076;52.362;6.588;2023-03-23T09:40:19;2.70;;;0.80;;
76259;SDS011;65076;52.362;6.588;2023-03-23T09:42:52;2.10;;;0.70;;
76259;SDS011;65076;52.362;6.588;2023-03-23T09:45:41;1.60;;;0.70;;
76259;SDS011;65076;52.362;6.588;2023-03-23T09:48:23;3.03;;;0.90;;
76259;SDS011;65076;52.362;6.588;2023-03-23T09:51:00;2.15;;;0.90;;
76259;SDS011;65076;52.362;6.588;2023-03-23T09:53:41;4.07;;;1.00;;
76259;SDS011;65076;52.362;6.588;2023-03-23T09:56:14;4.32;;;0.98;;
76259;SDS011;65076;52.362;6.588;2023-03-23T09:58:45;3.97;;;1.08;;
76259;SDS011;65076;52.362;6.588;2023-03-23T10:01:21;3.08;;;1.10;;
76259;SDS011;65076;52.362;6.588;2023-03-23T10:03:58;4.07;;;1.95;;
76259;SDS011;65076;52.362;6.588;2023-03-23T10:06:33;2.58;;;0.95;;
76259;SDS011;65076;52.362;6.588;2023-03-23T10:09:01;6.15;;;1.30;;
76259;SDS011;65076;52.362;6.588;2023-03-23T10:11:33;3.20;;;1.40;;
76259;SDS011;65076;52.362;6.588;2023-03-23T10:14:20;1.60;;;0.70;;
76259;SDS011;65076;52.362;6.588;2023-03-23T10:17:03;2.90;;;0.75;;
76259;SDS011;65076;52.362;6.588;2023-03-23T10:19:51;2.45;;;0.70;;
76259;SDS011;65076;52.362;6.588;2023-03-23T10:22:34;4.43;;;1.00;;
76259;SDS011;65076;52.362;6.588;2023-03-23T10:25:15;2.53;;;0.95;;
76259;SDS011;65076;52.362;6.588;2023-03-23T10:27:49;2.10;;;0.90;;
76259;SDS011;65076;52.362;6.588;2023-03-23T10:30:26;6.05;;;1.30;;
76259;SDS011;65076;52.362;6.588;2023-03-23T10:32:57;3.83;;;1.17;;
76259;SDS011;65076;52.362;6.588;2023-03-23T10:35:35;1.73;;;0.43;;
76259;SDS011;65076;52.362;6.588;2023-03-23T10:38:09;3.05;;;1.30;;
76259;SDS011;65076;52.362;6.588;2023-03-23T10:40:45;4.32;;;1.50;;
76259;SDS011;65076;52.362;6.588;2023-03-23T10:43:18;4.75;;;0.90;;
76259;SDS011;65076;52.362;6.588;2023-03-23T10:45:48;6.97;;;1.10;;
76259;SDS011;65076;52.362;6.588;2023-03-23T10:48:24;3.13;;;0.80;;
76259;SDS011;65076;52.362;6.588;2023-03-23T10:50:59;3.60;;;1.15;;
76259;SDS011;65076;52.362;6.588;2023-03-23T10:53:31;2.45;;;0.70;;
76259;SDS011;65076;52.362;6.588;2023-03-23T10:56:02;1.92;;;0.73;;
76259;SDS011;65076;52.362;6.588;2023-03-23T10:58:32;2.92;;;1.13;;
76259;SDS011;65076;52.362;6.588;2023-03-23T11:01:02;1.70;;;0.90;;
76259;SDS011;65076;52.362;6.588;2023-03-23T11:03:39;2.58;;;0.88;;
76259;SDS011;65076;52.362;6.588;2023-03-23T11:06:11;4.40;;;0.82;;
76259;SDS011;65076;52.362;6.588;2023-03-23T11:08:47;3.90;;;0.90;;
76259;SDS011;65076;52.362;6.588;2023-03-23T11:11:19;5.65;;;1.23;;
76259;SDS011;65076;52.362;6.588;2023-03-23T11:13:56;2.60;;;1.00;;
76259;SDS011;65076;52.362;6.588;2023-03-23T11:16:26;3.42;;;1.08;;
76259;SDS011;65076;52.362;6.588;2023-03-23T11:18:57;3.80;;;1.23;;
76259;SDS011;65076;52.362;6.588;2023-03-23T11:21:26;4.05;;;0.90;;
76259;SDS011;65076;52.362;6.588;2023-03-23T11:23:55;5.00;;;1.15;;
76259;SDS011;65076;52.362;6.588;2023-03-23T11:26:26;3.35;;;0.80;;
76259;SDS011;65076;52.362;6.588;2023-03-23T11:28:57;5.55;;;1.20;;
76259;SDS011;65076;52.362;6.588;2023-03-23T11:31:29;7.82;;;1.40;;
76259;SDS011;65076;52.362;6.588;2023-03-23T11:34:01;4.78;;;0.90;;
76259;SDS011;65076;52.362;6.588;2023-03-23T11:36:39;3.78;;;1.02;;
76259;SDS011;65076;52.362;6.588;2023-03-23T11:39:22;5.28;;;1.08;;
76259;SDS011;65076;52.362;6.588;2023-03-23T11:41:52;3.88;;;0.90;;
76259;SDS011;65076;52.362;6.588;2023-03-23T11:44:21;3.53;;;0.90;;
76259;SDS011;65076;52.362;6.588;2023-03-23T11:46:56;4.18;;;0.95;;
76259;SDS011;65076;52.362;6.588;2023-03-23T11:49:42;4.50;;;1.00;;
76259;SDS011;65076;52.362;6.588;2023-03-23T11:54:59;4.18;;;1.25;;
76259;SDS011;65076;52.362;6.588;2023-03-23T11:57:36;3.83;;;0.85;;
76259;SDS011;65076;52.362;6.588;2023-03-23T12:00:10;6.80;;;1.63;;
76259;SDS011;65076;52.362;6.588;2023-03-23T12:02:42;2.67;;;1.10;;
76259;SDS011;65076;52.362;6.588;2023-03-23T12:05:59;4.43;;;1.13;;
76259;SDS011;65076;52.362;6.588;2023-03-23T12:08:40;5.20;;;0.82;;
76259;SDS011;65076;52.362;6.588;2023-03-23T12:11:26;3.35;;;1.20;;
76259;SDS011;65076;52.362;6.588;2023-03-23T12:14:06;3.72;;;1.00;;
76259;SDS011;65076;52.362;6.588;2023-03-23T12:16:56;4.80;;;0.95;;
76259;SDS011;65076;52.362;6.588;2023-03-23T12:19:41;7.18;;;1.63;;
76259;SDS011;65076;52.362;6.588;2023-03-23T12:22:25;4.28;;;1.10;;
76259;SDS011;65076;52.362;6.588;2023-03-23T12:25:15;4.47;;;1.25;;
76259;SDS011;65076;52.362;6.588;2023-03-23T12:28:10;5.03;;;0.90;;
76259;SDS011;65076;52.362;6.588;2023-03-23T12:30:49;3.75;;;1.88;;
76259;SDS011;65076;52.362;6.588;2023-03-23T12:33:27;2.88;;;0.80;;
76259;SDS011;65076;52.362;6.588;2023-03-23T12:36:16;5.78;;;0.98;;
76259;SDS011;65076;52.362;6.588;2023-03-23T12:39:05;3.67;;;0.70;;
76259;SDS011;65076;52.362;6.588;2023-03-23T12:42:02;3.78;;;1.05;;
76259;SDS011;65076;52.362;6.588;2023-03-23T12:44:39;3.65;;;0.90;;
76259;SDS011;65076;52.362;6.588;2023-03-23T12:47:17;2.63;;;0.75;;
76259;SDS011;65076;52.362;6.588;2023-03-23T12:50:01;3.38;;;0.70;;
76259;SDS011;65076;52.362;6.588;2023-03-23T12:52:39;5.00;;;1.38;;
76259;SDS011;65076;52.362;6.588;2023-03-23T12:55:16;5.70;;;1.25;;
76259;SDS011;65076;52.362;6.588;2023-03-23T12:57:53;6.38;;;1.25;;
76259;SDS011;65076;52.362;6.588;2023-03-23T13:00:26;4.82;;;1.20;;
76259;SDS011;65076;52.362;6.588;2023-03-23T13:03:00;3.88;;;0.93;;
76259;SDS011;65076;52.362;6.588;2023-03-23T13:05:39;5.82;;;1.15;;
76259;SDS011;65076;52.362;6.588;2023-03-23T13:08:12;3.75;;;1.33;;
76259;SDS011;65076;52.362;6.588;2023-03-23T13:10:46;6.00;;;1.10;;
76259;SDS011;65076;52.362;6.588;2023-03-23T13:13:20;3.40;;;0.95;;
76259;SDS011;65076;52.362;6.588;2023-03-23T13:15:55;7.10;;;1.13;;
76259;SDS011;65076;52.362;6.588;2023-03-23T13:18:34;3.25;;;1.00;;
76259;SDS011;65076;52.362;6.588;2023-03-23T13:21:14;3.67;;;0.80;;
76259;SDS011;65076;52.362;6.588;2023-03-23T13:23:53;3.42;;;1.05;;
76259;SDS011;65076;52.362;6.588;2023-03-23T13:26:26;5.03;;;0.65;;
76259;SDS011;65076;52.362;6.588;2023-03-23T13:28:57;2.55;;;0.57;;
76259;SDS011;65076;52.362;6.588;2023-03-23T13:31:27;3.05;;;1.00;;
76259;SDS011;65076;52.362;6.588;2023-03-23T13:33:59;4.78;;;0.80;;
76259;SDS011;65076;52.362;6.588;2023-03-23T13:36:31;1.92;;;0.85;;
76259;SDS011;65076;52.362;6.588;2023-03-23T13:39:05;1.92;;;0.77;;
76259;SDS011;65076;52.362;6.588;2023-03-23T13:41:47;4.22;;;0.85;;
76259;SDS011;65076;52.362;6.588;2023-03-23T13:44:26;3.03;;;0.85;;
76259;SDS011;65076;52.362;6.588;2023-03-23T13:47:16;1.70;;;0.50;;
76259;SDS011;65076;52.362;6.588;2023-03-23T13:49:54;2.38;;;0.88;;
76259;SDS011;65076;52.362;6.588;2023-03-23T13:52:24;3.90;;;0.68;;
76259;SDS011;65076;52.362;6.588;2023-03-23T13:55:21;4.65;;;0.90;;
76259;SDS011;65076;52.362;6.588;2023-03-23T13:58:12;5.50;;;0.70;;
76259;SDS011;65076;52.362;6.588;2023-03-23T14:01:01;5.97;;;0.95;;
76259;SDS011;65076;52.362;6.588;2023-03-23T14:03:41;2.58;;;1.05;;
76259;SDS011;65076;52.362;6.588;2023-03-23T14:06:15;2.70;;;0.65;;
76259;SDS011;65076;52.362;6.588;2023-03-23T14:08:48;3.83;;;0.80;;
76259;SDS011;65076;52.362;6.588;2023-03-23T14:11:20;3.33;;;0.60;;
76259;SDS011;65076;52.362;6.588;2023-03-23T14:16:37;3.92;;;0.80;;
76259;SDS011;65076;52.362;6.588;2023-03-23T14:19:13;1.55;;;0.68;;
76259;SDS011;65076;52.362;6.588;2023-03-23T14:21:52;3.17;;;1.02;;
76259;SDS011;65076;52.362;6.588;2023-03-23T14:24:23;5.15;;;1.10;;
76259;SDS011;65076;52.362;6.588;2023-03-23T14:27:01;3.08;;;1.10;;
76259;SDS011;65076;52.362;6.588;2023-03-23T14:29:35;2.35;;;0.75;;
76259;SDS011;65076;52.362;6.588;2023-03-23T14:32:05;3.60;;;0.73;;
76259;SDS011;65076;52.362;6.588;2023-03-23T14:34:36;4.38;;;0.95;;
76259;SDS011;65076;52.362;6.588;2023-03-23T14:37:03;2.47;;;0.95;;
76259;SDS011;65076;52.362;6.588;2023-03-23T14:39:31;4.45;;;0.70;;
76259;SDS011;65076;52.362;6.588;2023-03-23T14:42:01;2.20;;;0.82;;
76259;SDS011;65076;52.362;6.588;2023-03-23T14:44:32;2.38;;;0.73;;
76259;SDS011;65076;52.362;6.588;2023-03-23T14:47:10;3.10;;;1.05;;
76259;SDS011;65076;52.362;6.588;2023-03-23T14:49:52;2.15;;;0.75;;
76259;SDS011;65076;52.362;6.588;2023-03-23T14:52:21;3.50;;;0.75;;
76259;SDS011;65076;52.362;6.588;2023-03-23T14:54:51;4.05;;;0.90;;
76259;SDS011;65076;52.362;6.588;2023-03-23T14:57:20;2.83;;;1.05;;
76259;SDS011;65076;52.362;6.588;2023-03-23T15:02:24;3.63;;;0.70;;
76259;SDS011;65076;52.362;6.588;2023-03-23T15:04:59;4.30;;;1.10;;
76259;SDS011;65076;52.362;6.588;2023-03-23T15:07:31;2.15;;;0.80;;
76259;SDS011;65076;52.362;6.588;2023-03-23T15:10:04;1.08;;;0.70;;
76259;SDS011;65076;52.362;6.588;2023-03-23T15:12:33;1.88;;;0.77;;
76259;SDS011;65076;52.362;6.588;2023-03-23T15:15:02;4.40;;;0.93;;
76259;SDS011;65076;52.362;6.588;2023-03-23T15:17:35;3.53;;;1.02;;
76259;SDS011;65076;52.362;6.588;2023-03-23T15:20:08;9.52;;;5.18;;
76259;SDS011;65076;52.362;6.588;2023-03-23T15:22:44;5.03;;;2.58;;
76259;SDS011;65076;52.362;6.588;2023-03-23T15:25:18;5.50;;;3.03;;
76259;SDS011;65076;52.362;6.588;2023-03-23T15:27:49;3.47;;;2.35;;
76259;SDS011;65076;52.362;6.588;2023-03-23T15:30:29;6.90;;;1.80;;
76259;SDS011;65076;52.362;6.588;2023-03-23T15:33:02;3.88;;;1.48;;
76259;SDS011;65076;52.362;6.588;2023-03-23T15:35:34;2.88;;;2.50;;